Darstellungsparameter: Aktuell verwendete Einstellungen:
Skalierung der Graphiken ... ?
xyx+y,   Skalierungsfaktor:      Skalierung: Modus: x, Faktor: 1
Darstellungszeitraum ... ?
Vom - - bis: - -   Zeitraum: 01.06.2004 - 07.06.2004
Min/Max/Avg-Anzeige ... ?
Zeige MMA aktuell
Zeige MMA Monat
Zeige MMA alles
Zeige --A aktuell
Zeige --A Monat
Zeige --A alles
Keine MMA-Anzeige
MMA:
Keine MMA-Graphiken
MMA-Basis: 01.06.2004 - 07.06.2004
Quicknavigation für Darstellung... ?
Tage:      1T, 2T, 3T, 5T -1T -2T -3T -5T +1T +2T +3T +5T
Wochen: 1W, 2W, 3W -1W -2W -3W +1W +2W +3W
Monate: 1M, 3M, 6M -1M -3M -6M +1M +3M +6M
Jahre:    1J, 3J, 5J, 10J -1J -3J -5J -10J +1J +3J +5J +10J
Nutze für die Darstellung ... ?
Originaldaten oder Mittelwerte auf ...
Stundenbasis Tagesbasis Wochenbasis
Monatsbasis Jahresbasis      Datenbasis: Original-Daten
Darstellen als:
Statistik (Auto) Statistik J:M      Darstellung:
Zur Graphik,    zurück zur Übersicht aller Sensoren.
 
Tabellarische Datenbersicht: ?
 
Sensor: Nr:Datum:Temp:Abs-Feuchte:Windchill:Wind:
Aussen-T/F 1 01-06-2004 00:08:01 11.2 C 9.43 g/m*3 11.2 C 0 km/h
2 01-06-2004 00:20:01 11.2 C 9.43 g/m*3 11.2 C 0 km/h
3 01-06-2004 00:32:01 11.2 C 9.43 g/m*3 11.2 C 0 km/h
4 01-06-2004 00:44:01 11 C 9.31 g/m*3 11 C 0 km/h
5 01-06-2004 00:56:01 11 C 9.31 g/m*3 11 C 0 km/h
6 01-06-2004 01:08:01 10.9 C 9.25 g/m*3 10.9 C 0 km/h
7 01-06-2004 01:20:01 10.8 C 9.19 g/m*3 10.8 C 0 km/h
8 01-06-2004 01:32:01 10.8 C 9.19 g/m*3 10.8 C 0 km/h
9 01-06-2004 01:44:01 11 C 9.31 g/m*3 11 C 0 km/h
10 01-06-2004 01:56:01 10.8 C 9.19 g/m*3 10.8 C 0 km/h
11 01-06-2004 02:08:01 10.8 C 9.19 g/m*3 10.8 C 0 km/h
12 01-06-2004 02:20:01 11.1 C 9.27 g/m*3 11.1 C 0 km/h
13 01-06-2004 02:32:01 11.1 C 9.27 g/m*3 11.1 C 0 km/h
14 01-06-2004 02:44:01 10.9 C 9.25 g/m*3 10.9 C 0 km/h
15 01-06-2004 02:57:02 10.9 C 9.25 g/m*3 10.9 C 0 km/h
16 01-06-2004 03:09:02 10.8 C 9.09 g/m*3 10.8 C 0 km/h
17 01-06-2004 03:21:02 10.8 C 9.09 g/m*3 10.8 C 0 km/h
18 01-06-2004 03:33:01 10.8 C 9.09 g/m*3 10.8 C 0 km/h
19 01-06-2004 03:45:01 10.8 C 9.09 g/m*3 10.8 C 0 km/h
20 01-06-2004 03:57:01 10.8 C 9.09 g/m*3 10.8 C 0 km/h
21 01-06-2004 04:09:01 10.8 C 9.09 g/m*3 10.8 C 0 km/h
22 01-06-2004 04:21:01 10.8 C 9.09 g/m*3 10.8 C 0 km/h
23 01-06-2004 04:33:01 10.6 C 8.98 g/m*3 10.6 C 0 km/h
24 01-06-2004 04:45:01 10.5 C 8.92 g/m*3 10.5 C 0 km/h
25 01-06-2004 04:57:01 10.5 C 8.92 g/m*3 10.5 C 0 km/h
Sensor: Nr:Datum:Temp:Abs-Feuchte:Windchill:Wind:
Aussen-T/F 26 01-06-2004 05:09:01 10.5 C 8.92 g/m*3 10.5 C 0 km/h
27 01-06-2004 05:21:01 10.5 C 8.92 g/m*3 10.5 C 0 km/h
28 01-06-2004 05:33:01 9.8 C 8.63 g/m*3 9.8 C 0 km/h
29 01-06-2004 05:45:01 9.8 C 8.63 g/m*3 9.8 C 0 km/h
30 01-06-2004 05:57:01 9.8 C 8.63 g/m*3 9.8 C 0 km/h
31 01-06-2004 06:09:02 9.7 C 8.57 g/m*3 9.7 C 0 km/h
32 01-06-2004 06:21:01 9.8 C 8.72 g/m*3 9.8 C 0 km/h
33 01-06-2004 06:33:02 9.9 C 8.78 g/m*3 9.9 C 0 km/h
34 01-06-2004 06:45:01 10.1 C 8.79 g/m*3 10.1 C 0 km/h
35 01-06-2004 06:57:01 10.2 C 8.85 g/m*3 10.2 C 0 km/h
36 01-06-2004 07:09:02 10.6 C 9.08 g/m*3 10.6 C 0 km/h
37 01-06-2004 07:21:01 11.1 C 9.27 g/m*3 11.1 C 0 km/h
38 01-06-2004 07:33:02 11.1 C 9.27 g/m*3 11.1 C 0 km/h
39 01-06-2004 07:45:02 11.3 C 9.28 g/m*3 11.3 C 0 km/h
40 01-06-2004 07:57:02 11.9 C 9.43 g/m*3 11.9 C 0 km/h
41 01-06-2004 08:09:02 12.1 C 9.12 g/m*3 12.1 C 0 km/h
42 01-06-2004 08:21:02 11.9 C 9 g/m*3 11.9 C 0 km/h
43 01-06-2004 08:33:02 12 C 9.06 g/m*3 12 C 0 km/h
44 01-06-2004 08:45:02 12.4 C 9.29 g/m*3 12.4 C 0 km/h
45 01-06-2004 08:57:02 12.5 C 9.24 g/m*3 12.5 C 0 km/h
46 01-06-2004 09:09:02 12.8 C 9.52 g/m*3 12.8 C 0 km/h
47 01-06-2004 09:21:02 13.2 C 9.53 g/m*3 13.2 C 0 km/h
48 01-06-2004 09:33:01 13.8 C 9.77 g/m*3 13.8 C 0 km/h
49 01-06-2004 09:45:01 13.8 C 9.77 g/m*3 13.8 C 0 km/h
50 01-06-2004 09:57:01 13.8 C 9.77 g/m*3 13.8 C 0 km/h
Sensor: Nr:Datum:Temp:Abs-Feuchte:Windchill:Wind:
Aussen-T/F 51 01-06-2004 10:09:01 13.8 C 9.77 g/m*3 13.8 C 0 km/h
52 01-06-2004 10:21:01 13.8 C 9.77 g/m*3 13.8 C 0 km/h
53 01-06-2004 10:33:01 16.5 C 9.97 g/m*3 16.5 C 0 km/h
54 01-06-2004 10:45:01 16.5 C 9.97 g/m*3 16.5 C 0 km/h
55 01-06-2004 10:57:01 18.3 C 10.94 g/m*3 18.3 C 0 km/h
56 01-06-2004 11:09:01 18.4 C 9.91 g/m*3 18.4 C 0 km/h
57 01-06-2004 11:21:01 18.1 C 10.51 g/m*3 18.1 C 0 km/h
58 01-06-2004 11:33:01 18.4 C 10.22 g/m*3 18.4 C 0 km/h
59 01-06-2004 11:45:01 19.7 C 9 g/m*3 19.7 C 0 km/h
60 01-06-2004 11:57:01 20.4 C 8.14 g/m*3 20.4 C 0 km/h
61 01-06-2004 12:09:01 21.1 C 7.55 g/m*3 21.1 C 0 km/h
62 01-06-2004 12:21:01 21.1 C 7.55 g/m*3 21.1 C 0 km/h
63 01-06-2004 12:33:01 21 C 8.61 g/m*3 21 C 0 km/h
64 01-06-2004 12:45:01 21.1 C 9.4 g/m*3 21.1 C 0 km/h
65 01-06-2004 12:57:01 22.8 C 9.14 g/m*3 22.8 C 0 km/h
66 01-06-2004 13:09:01 22.8 C 9.14 g/m*3 22.8 C 0 km/h
67 01-06-2004 13:21:01 25.5 C 7.34 g/m*3 25.5 C 0 km/h
68 01-06-2004 13:33:01 22 C 6.99 g/m*3 22 C 0 km/h
69 01-06-2004 13:45:01 22 C 6.99 g/m*3 22 C 0 km/h
70 01-06-2004 13:57:01 22 C 6.99 g/m*3 22 C 0 km/h
71 01-06-2004 14:09:01 24.5 C 6.71 g/m*3 24.5 C 0 km/h
72 01-06-2004 14:21:01 24.5 C 6.71 g/m*3 24.5 C 0 km/h
73 01-06-2004 14:33:01 25 C 7.14 g/m*3 25 C 0 km/h
74 01-06-2004 14:47:01 25 C 7.14 g/m*3 25 C 0 km/h
75 01-06-2004 14:59:01 25 C 7.14 g/m*3 25 C 0 km/h
Sensor: Nr:Datum:Temp:Abs-Feuchte:Windchill:Wind:
Aussen-T/F 76 01-06-2004 15:11:01 25 C 7.14 g/m*3 25 C 0 km/h
77 01-06-2004 15:23:01 25 C 7.14 g/m*3 25 C 0 km/h
78 01-06-2004 15:35:01 25 C 7.14 g/m*3 25 C 0 km/h
79 01-06-2004 15:59:01 23.6 C 6.59 g/m*3 23.6 C 0 km/h
80 01-06-2004 16:11:01 23.6 C 6.59 g/m*3 23.6 C 0 km/h
81 01-06-2004 16:23:01 23.6 C 6.59 g/m*3 23.6 C 0 km/h
82 01-06-2004 16:35:01 23.6 C 6.59 g/m*3 23.6 C 0 km/h
83 01-06-2004 16:47:01 23.6 C 6.59 g/m*3 23.6 C 0 km/h
84 01-06-2004 16:59:01 23.6 C 6.59 g/m*3 23.6 C 0 km/h
85 01-06-2004 17:11:01 23.6 C 6.59 g/m*3 23.6 C 0 km/h
86 01-06-2004 17:23:01 23.6 C 6.59 g/m*3 23.6 C 0 km/h
87 01-06-2004 17:35:00 23.6 C 6.59 g/m*3 23.6 C 0 km/h
88 01-06-2004 17:47:01 23.6 C 6.59 g/m*3 23.6 C 0 km/h
89 01-06-2004 17:59:01 23.4 C 7.57 g/m*3 23.4 C 0 km/h
90 01-06-2004 18:11:01 23.4 C 7.57 g/m*3 23.4 C 0 km/h
91 01-06-2004 18:23:01 21.1 C 9.58 g/m*3 21.1 C 0 km/h
92 01-06-2004 18:35:01 21.1 C 9.58 g/m*3 21.1 C 0 km/h
93 01-06-2004 18:47:01 21.1 C 9.58 g/m*3 21.1 C 0 km/h
94 01-06-2004 18:59:01 21.1 C 9.58 g/m*3 21.1 C 0 km/h
95 01-06-2004 19:11:01 21.1 C 9.58 g/m*3 21.1 C 0 km/h
96 01-06-2004 19:23:01 21.1 C 9.58 g/m*3 21.1 C 0 km/h
97 01-06-2004 19:35:01 21.1 C 9.58 g/m*3 21.1 C 0 km/h
98 01-06-2004 19:47:01 21.1 C 9.58 g/m*3 21.1 C 0 km/h
99 01-06-2004 19:59:01 21.1 C 9.58 g/m*3 21.1 C 0 km/h
100 01-06-2004 20:11:01 21.1 C 9.58 g/m*3 21.1 C 0 km/h
Sensor: Nr:Datum:Temp:Abs-Feuchte:Windchill:Wind:
Aussen-T/F 101 01-06-2004 20:23:02 21.1 C 9.58 g/m*3 21.1 C 0 km/h
102 01-06-2004 20:35:02 20 C 9.33 g/m*3 20 C 0 km/h
103 01-06-2004 20:47:02 19 C 8.96 g/m*3 19 C 0 km/h
104 01-06-2004 20:59:02 18.4 C 9.28 g/m*3 18.4 C 0 km/h
105 01-06-2004 21:11:01 17.7 C 8.9 g/m*3 17.7 C 0 km/h
106 01-06-2004 21:23:01 16.9 C 8.77 g/m*3 16.9 C 0 km/h
107 01-06-2004 21:35:01 16.4 C 8.65 g/m*3 16.4 C 0 km/h
108 01-06-2004 21:47:01 16 C 8.58 g/m*3 16 C 0 km/h
109 01-06-2004 21:59:01 15.6 C 8.91 g/m*3 15.6 C 0 km/h
110 01-06-2004 22:11:01 15.6 C 8.91 g/m*3 15.6 C 0 km/h
111 01-06-2004 22:23:01 15.5 C 8.99 g/m*3 15.5 C 0 km/h
112 01-06-2004 22:35:01 15.2 C 9.09 g/m*3 15.2 C 0 km/h
113 01-06-2004 22:47:01 15 C 9.1 g/m*3 15 C 0 km/h
114 01-06-2004 22:59:01 14.7 C 9.07 g/m*3 14.7 C 0 km/h
115 01-06-2004 23:11:01 14.4 C 9.02 g/m*3 14.4 C 0 km/h
116 01-06-2004 23:23:01 14.3 C 8.97 g/m*3 14.3 C 0 km/h
117 01-06-2004 23:35:01 14.1 C 8.74 g/m*3 14.1 C 0 km/h
118 01-06-2004 23:47:02 13.8 C 8.7 g/m*3 13.8 C 0 km/h
119 01-06-2004 23:59:02 13.7 C 8.76 g/m*3 13.7 C 0 km/h
120 02-06-2004 00:11:02 13.4 C 8.72 g/m*3 13.4 C 0 km/h
121 02-06-2004 00:23:02 13.2 C 8.73 g/m*3 13.2 C 0 km/h
122 02-06-2004 00:35:01 13 C 8.73 g/m*3 13 C 0 km/h
123 02-06-2004 00:47:02 12.8 C 8.85 g/m*3 12.8 C 0 km/h
124 02-06-2004 00:59:02 12.6 C 8.74 g/m*3 12.6 C 0 km/h
125 02-06-2004 01:11:02 12.4 C 8.63 g/m*3 12.4 C 0 km/h
Sensor: Nr:Datum:Temp:Abs-Feuchte:Windchill:Wind:
Aussen-T/F 126 02-06-2004 01:23:02 12.2 C 8.52 g/m*3 12.2 C 0 km/h
127 02-06-2004 01:35:02 12.2 C 8.52 g/m*3 12.2 C 0 km/h
128 02-06-2004 01:47:02 12.3 C 8.58 g/m*3 12.3 C 0 km/h
129 02-06-2004 01:59:02 12.2 C 8.74 g/m*3 12.2 C 0 km/h
130 02-06-2004 02:11:02 12.2 C 8.74 g/m*3 12.2 C 0 km/h
131 02-06-2004 02:23:02 12 C 8.63 g/m*3 12 C 0 km/h
132 02-06-2004 02:35:02 11.8 C 8.63 g/m*3 11.8 C 0 km/h
133 02-06-2004 02:48:02 11.7 C 8.68 g/m*3 11.7 C 0 km/h
134 02-06-2004 03:00:02 11.4 C 8.52 g/m*3 11.4 C 0 km/h
135 02-06-2004 03:12:02 11.3 C 8.47 g/m*3 11.3 C 0 km/h
136 02-06-2004 03:24:02 11.1 C 8.46 g/m*3 11.1 C 0 km/h
137 02-06-2004 03:36:01 10.9 C 8.45 g/m*3 10.9 C 0 km/h
138 02-06-2004 03:48:01 10.8 C 8.4 g/m*3 10.8 C 0 km/h
139 02-06-2004 04:00:01 10.7 C 8.45 g/m*3 10.7 C 0 km/h
140 02-06-2004 04:12:01 10.7 C 8.45 g/m*3 10.7 C 0 km/h
141 02-06-2004 04:24:01 10.6 C 8.39 g/m*3 10.6 C 0 km/h
142 02-06-2004 04:36:01 10.4 C 8.29 g/m*3 10.4 C 0 km/h
143 02-06-2004 04:48:01 10.3 C 8.24 g/m*3 10.3 C 0 km/h
144 02-06-2004 05:00:01 10.2 C 8.28 g/m*3 10.2 C 0 km/h
145 02-06-2004 05:12:01 10.1 C 8.13 g/m*3 10.1 C 0 km/h
146 02-06-2004 05:24:00 10 C 8.08 g/m*3 10 C 0 km/h
147 02-06-2004 05:36:00 9.9 C 8.22 g/m*3 9.9 C 0 km/h
148 02-06-2004 05:48:01 9.8 C 8.26 g/m*3 9.8 C 0 km/h
149 02-06-2004 06:00:01 9.8 C 8.35 g/m*3 9.8 C 0 km/h
150 02-06-2004 06:12:01 9.9 C 8.4 g/m*3 9.9 C 0 km/h
Sensor: Nr:Datum:Temp:Abs-Feuchte:Windchill:Wind:
Aussen-T/F 151 02-06-2004 06:24:01 9.9 C 8.4 g/m*3 9.9 C 0 km/h
152 02-06-2004 06:36:00 10 C 8.36 g/m*3 10 C 0 km/h
153 02-06-2004 06:48:01 10.1 C 8.42 g/m*3 10.1 C 0 km/h
154 02-06-2004 07:00:01 10.3 C 8.52 g/m*3 10.3 C 0 km/h
155 02-06-2004 07:12:01 10.6 C 8.59 g/m*3 10.6 C 0 km/h
156 02-06-2004 07:24:01 10.8 C 8.6 g/m*3 10.8 C 0 km/h
157 02-06-2004 07:36:01 11.1 C 8.56 g/m*3 11.1 C 0 km/h
158 02-06-2004 07:48:01 11 C 8.41 g/m*3 11 C 0 km/h
159 02-06-2004 08:00:01 11.2 C 8.62 g/m*3 11.2 C 0 km/h
160 02-06-2004 08:12:01 11.6 C 8.73 g/m*3 11.6 C 0 km/h
161 02-06-2004 08:24:01 11.9 C 8.9 g/m*3 11.9 C 0 km/h
162 02-06-2004 08:36:00 12.4 C 8.96 g/m*3 12.4 C 0 km/h
163 02-06-2004 08:48:01 13.1 C 9.13 g/m*3 13.1 C 0 km/h
164 02-06-2004 09:00:01 13.5 C 9.12 g/m*3 13.5 C 0 km/h
165 02-06-2004 09:12:01 14 C 9.29 g/m*3 14 C 0 km/h
166 02-06-2004 09:24:01 14.6 C 9.26 g/m*3 14.6 C 0 km/h
167 02-06-2004 09:36:01 15.4 C 9.2 g/m*3 15.4 C 0 km/h
168 02-06-2004 09:48:01 16.1 C 9.46 g/m*3 16.1 C 0 km/h
169 02-06-2004 10:00:01 16.8 C 9.58 g/m*3 16.8 C 0 km/h
170 02-06-2004 10:12:01 17.5 C 9.54 g/m*3 17.5 C 0 km/h
171 02-06-2004 10:24:01 18 C 9.37 g/m*3 18 C 0 km/h
172 02-06-2004 10:36:01 18.8 C 9.66 g/m*3 18.8 C 0 km/h
173 02-06-2004 10:48:01 19.3 C 9.45 g/m*3 19.3 C 0 km/h
174 02-06-2004 11:00:01 19.7 C 9.34 g/m*3 19.7 C 0 km/h
175 02-06-2004 11:12:01 20.6 C 10.02 g/m*3 20.6 C 0 km/h
Sensor: Nr:Datum:Temp:Abs-Feuchte:Windchill:Wind:
Aussen-T/F 176 02-06-2004 11:24:01 21 C 9.16 g/m*3 21 C 0 km/h
177 02-06-2004 11:36:01 21.4 C 8.81 g/m*3 21.4 C 0 km/h
178 02-06-2004 11:48:01 21.9 C 8.68 g/m*3 21.9 C 0 km/h
179 02-06-2004 12:00:01 22.6 C 8.04 g/m*3 22.6 C 0 km/h
180 02-06-2004 12:12:01 22.4 C 7.55 g/m*3 22.4 C 0 km/h
181 02-06-2004 12:24:01 21.3 C 7.83 g/m*3 21.3 C 0 km/h
182 02-06-2004 12:36:01 21.1 C 7.92 g/m*3 21.1 C 0 km/h
183 02-06-2004 12:48:01 21.3 C 8.39 g/m*3 21.3 C 0 km/h
184 02-06-2004 13:00:01 21.6 C 8.53 g/m*3 21.6 C 0 km/h
185 02-06-2004 13:12:01 24.4 C 8.23 g/m*3 24.4 C 0 km/h
186 02-06-2004 13:24:01 23.4 C 8.2 g/m*3 23.4 C 0 km/h
187 02-06-2004 13:36:02 22.1 C 7.81 g/m*3 22.1 C 0 km/h
188 02-06-2004 13:48:01 20.6 C 8.41 g/m*3 20.6 C 0 km/h
189 02-06-2004 14:00:01 20.6 C 8.77 g/m*3 20.6 C 0 km/h
190 02-06-2004 14:12:02 22 C 8.73 g/m*3 22 C 0 km/h
191 02-06-2004 14:24:01 18.7 C 11.53 g/m*3 18.7 C 0 km/h
192 02-06-2004 14:36:02 16.1 C 11.24 g/m*3 16.1 C 0 km/h
193 02-06-2004 14:48:01 15.4 C 11.43 g/m*3 15.4 C 0 km/h
194 02-06-2004 15:00:01 15.3 C 11.62 g/m*3 15.3 C 0 km/h
195 02-06-2004 15:12:02 15.9 C 12.19 g/m*3 15.9 C 0 km/h
196 02-06-2004 15:24:02 16.3 C 12.35 g/m*3 16.3 C 0 km/h
197 02-06-2004 15:36:02 16.8 C 12.58 g/m*3 16.8 C 0 km/h
198 02-06-2004 15:48:02 17.6 C 12.75 g/m*3 17.6 C 0 km/h
199 02-06-2004 16:00:02 20.3 C 13.72 g/m*3 20.3 C 0 km/h
200 02-06-2004 16:12:02 20.4 C 12.91 g/m*3 20.4 C 0 km/h
Sensor: Nr:Datum:Temp:Abs-Feuchte:Windchill:Wind:
Aussen-T/F 201 02-06-2004 16:24:02 19.3 C 12.77 g/m*3 19.3 C 0 km/h
202 02-06-2004 16:36:02 17.7 C 9.66 g/m*3 17.7 C 0 km/h
203 02-06-2004 16:48:02 15.8 C 10.5 g/m*3 15.8 C 0 km/h
204 02-06-2004 17:00:02 15.5 C 10.57 g/m*3 15.5 C 0 km/h
205 02-06-2004 17:12:02 15.7 C 11.37 g/m*3 15.7 C 0 km/h
206 02-06-2004 17:24:02 16.1 C 11.93 g/m*3 16.1 C 0 km/h
207 02-06-2004 17:36:02 16.3 C 12.21 g/m*3 16.3 C 0 km/h
208 02-06-2004 17:48:01 16.5 C 12.22 g/m*3 16.5 C 0 km/h
209 02-06-2004 18:00:01 16.6 C 12.01 g/m*3 16.6 C 0 km/h
210 02-06-2004 18:12:01 16.9 C 11.94 g/m*3 16.9 C 0 km/h
211 02-06-2004 18:24:01 16.9 C 11.94 g/m*3 16.9 C 0 km/h
212 02-06-2004 18:36:01 16.5 C 11.09 g/m*3 16.5 C 0 km/h
213 02-06-2004 18:48:01 16.2 C 10.76 g/m*3 16.2 C 0 km/h
214 02-06-2004 19:00:01 16.3 C 10.82 g/m*3 16.3 C 0 km/h
215 02-06-2004 19:12:01 16.3 C 10.96 g/m*3 16.3 C 0 km/h
216 02-06-2004 19:24:01 16.3 C 10.96 g/m*3 16.3 C 0 km/h
217 02-06-2004 19:36:01 15.7 C 10.57 g/m*3 15.7 C 0 km/h
218 02-06-2004 19:48:01 15.2 C 10.51 g/m*3 15.2 C 0 km/h
219 02-06-2004 20:00:01 15.1 C 10.32 g/m*3 15.1 C 0 km/h
220 02-06-2004 20:12:01 15 C 10.51 g/m*3 15 C 0 km/h
221 02-06-2004 20:24:01 14.8 C 10.64 g/m*3 14.8 C 0 km/h
222 02-06-2004 20:36:01 14.2 C 10.62 g/m*3 14.2 C 0 km/h
223 02-06-2004 20:48:01 14.1 C 10.8 g/m*3 14.1 C 0 km/h
224 02-06-2004 21:00:01 14 C 10.86 g/m*3 14 C 0 km/h
225 02-06-2004 21:12:01 13.6 C 10.71 g/m*3 13.6 C 0 km/h
Sensor: Nr:Datum:Temp:Abs-Feuchte:Windchill:Wind:
Aussen-T/F 226 02-06-2004 21:24:01 13.3 C 10.4 g/m*3 13.3 C 0 km/h
227 02-06-2004 21:36:01 13.4 C 10.69 g/m*3 13.4 C 0 km/h
228 02-06-2004 21:48:01 13.4 C 10.69 g/m*3 13.4 C 0 km/h
229 02-06-2004 22:00:01 13.5 C 10.88 g/m*3 13.5 C 0 km/h
230 02-06-2004 22:12:01 13.4 C 10.81 g/m*3 13.4 C 0 km/h
231 02-06-2004 22:24:01 13.2 C 10.68 g/m*3 13.2 C 0 km/h
232 02-06-2004 22:36:01 13.2 C 10.68 g/m*3 13.2 C 0 km/h
233 02-06-2004 22:48:01 13 C 10.55 g/m*3 13 C 0 km/h
234 02-06-2004 23:00:01 12.9 C 10.48 g/m*3 12.9 C 0 km/h
235 02-06-2004 23:12:01 13 C 10.43 g/m*3 13 C 0 km/h
236 02-06-2004 23:24:01 13 C 10.32 g/m*3 13 C 0 km/h
237 02-06-2004 23:36:01 13.1 C 10.38 g/m*3 13.1 C 0 km/h
238 02-06-2004 23:48:01 13 C 10.32 g/m*3 13 C 0 km/h
239 03-06-2004 00:00:01 12.9 C 10.37 g/m*3 12.9 C 0 km/h
240 03-06-2004 00:12:01 12.8 C 10.3 g/m*3 12.8 C 0 km/h
241 03-06-2004 00:24:01 12.7 C 10.35 g/m*3 12.7 C 0 km/h
242 03-06-2004 00:36:00 12.7 C 10.35 g/m*3 12.7 C 0 km/h
243 03-06-2004 00:48:01 12.6 C 10.29 g/m*3 12.6 C 0 km/h
244 03-06-2004 01:00:01 12.8 C 10.53 g/m*3 12.8 C 0 km/h
245 03-06-2004 01:12:01 12.7 C 10.46 g/m*3 12.7 C 0 km/h
246 03-06-2004 01:24:02 12.8 C 10.53 g/m*3 12.8 C 0 km/h
247 03-06-2004 01:36:02 12.8 C 10.53 g/m*3 12.8 C 0 km/h
248 03-06-2004 01:48:02 13 C 10.55 g/m*3 13 C 0 km/h
249 03-06-2004 02:00:02 12.9 C 10.48 g/m*3 12.9 C 0 km/h
250 03-06-2004 02:12:02 12.9 C 10.48 g/m*3 12.9 C 0 km/h
Sensor: Nr:Datum:Temp:Abs-Feuchte:Windchill:Wind:
Aussen-T/F 251 03-06-2004 02:24:02 12.9 C 10.48 g/m*3 12.9 C 0 km/h
252 03-06-2004 02:36:02 12.8 C 10.3 g/m*3 12.8 C 0 km/h
253 03-06-2004 02:49:03 12.8 C 10.3 g/m*3 12.8 C 0 km/h
254 03-06-2004 03:01:03 12.8 C 10.3 g/m*3 12.8 C 0 km/h
255 03-06-2004 03:13:03 12.9 C 10.37 g/m*3 12.9 C 0 km/h
256 03-06-2004 03:25:03 12.9 C 10.48 g/m*3 12.9 C 0 km/h
257 03-06-2004 03:37:01 12.9 C 10.48 g/m*3 12.9 C 0 km/h
258 03-06-2004 03:49:01 12.9 C 10.48 g/m*3 12.9 C 0 km/h
259 03-06-2004 04:01:01 12.9 C 10.48 g/m*3 12.9 C 0 km/h
260 03-06-2004 04:13:01 12.9 C 10.37 g/m*3 12.9 C 0 km/h
261 03-06-2004 04:25:01 13 C 10.43 g/m*3 13 C 0 km/h
262 03-06-2004 04:37:01 13 C 10.43 g/m*3 13 C 0 km/h
263 03-06-2004 04:49:01 13 C 10.43 g/m*3 13 C 0 km/h
264 03-06-2004 05:01:01 13 C 10.43 g/m*3 13 C 0 km/h
265 03-06-2004 05:13:01 13 C 10.43 g/m*3 13 C 0 km/h
266 03-06-2004 05:25:01 13.2 C 10.56 g/m*3 13.2 C 0 km/h
267 03-06-2004 05:37:01 13.2 C 10.45 g/m*3 13.2 C 0 km/h
268 03-06-2004 05:49:01 13.2 C 10.33 g/m*3 13.2 C 0 km/h
269 03-06-2004 06:01:01 13.2 C 10.33 g/m*3 13.2 C 0 km/h
270 03-06-2004 06:13:01 13.2 C 10.33 g/m*3 13.2 C 0 km/h
271 03-06-2004 06:25:00 13.1 C 10.27 g/m*3 13.1 C 0 km/h
272 03-06-2004 06:37:00 13.1 C 10.27 g/m*3 13.1 C 0 km/h
273 03-06-2004 06:49:01 13.1 C 10.38 g/m*3 13.1 C 0 km/h
274 03-06-2004 07:01:02 13.2 C 10.45 g/m*3 13.2 C 0 km/h
275 03-06-2004 07:13:02 13.2 C 10.33 g/m*3 13.2 C 0 km/h
Sensor: Nr:Datum:Temp:Abs-Feuchte:Windchill:Wind:
Aussen-T/F 276 03-06-2004 07:25:01 13.3 C 10.4 g/m*3 13.3 C 0 km/h
277 03-06-2004 07:37:01 13.4 C 10.46 g/m*3 13.4 C 0 km/h
278 03-06-2004 07:49:01 13.4 C 10.35 g/m*3 13.4 C 0 km/h
279 03-06-2004 08:01:01 13.6 C 10.36 g/m*3 13.6 C 0 km/h
280 03-06-2004 08:13:01 13.7 C 10.3 g/m*3 13.7 C 0 km/h
281 03-06-2004 08:25:01 13.6 C 10.24 g/m*3 13.6 C 0 km/h
282 03-06-2004 08:37:00 13.7 C 10.3 g/m*3 13.7 C 0 km/h
283 03-06-2004 08:49:01 13.9 C 10.19 g/m*3 13.9 C 0 km/h
284 03-06-2004 09:01:01 14.2 C 10.14 g/m*3 14.2 C 0 km/h
285 03-06-2004 09:13:01 14.7 C 10.32 g/m*3 14.7 C 0 km/h
286 03-06-2004 09:25:01 14.4 C 9.77 g/m*3 14.4 C 0 km/h
287 03-06-2004 09:37:01 14.6 C 10.01 g/m*3 14.6 C 0 km/h
288 03-06-2004 09:49:01 14.9 C 9.94 g/m*3 14.9 C 0 km/h
289 03-06-2004 10:01:01 14.9 C 10.07 g/m*3 14.9 C 0 km/h
290 03-06-2004 10:13:01 14.8 C 9.88 g/m*3 14.8 C 0 km/h
291 03-06-2004 10:25:01 15.4 C 9.85 g/m*3 15.4 C 0 km/h
292 03-06-2004 10:37:01 16 C 9.81 g/m*3 16 C 0 km/h
293 03-06-2004 10:49:01 15.7 C 9.77 g/m*3 15.7 C 0 km/h
294 03-06-2004 11:01:01 15.6 C 9.71 g/m*3 15.6 C 0 km/h
295 03-06-2004 11:13:01 15.6 C 9.71 g/m*3 15.6 C 0 km/h
296 03-06-2004 11:25:01 16 C 9.81 g/m*3 16 C 0 km/h
297 03-06-2004 11:37:01 16.3 C 9.71 g/m*3 16.3 C 0 km/h
298 03-06-2004 11:49:01 16.5 C 9.41 g/m*3 16.5 C 0 km/h
299 03-06-2004 12:01:01 16.1 C 9.32 g/m*3 16.1 C 0 km/h
300 03-06-2004 12:13:01 16 C 9.4 g/m*3 16 C 0 km/h
Sensor: Nr:Datum:Temp:Abs-Feuchte:Windchill:Wind:
Aussen-T/F 301 03-06-2004 12:25:01 16.2 C 9.38 g/m*3 16.2 C 0 km/h
302 03-06-2004 12:37:01 16.8 C 9.72 g/m*3 16.8 C 0 km/h
303 03-06-2004 12:49:01 17.3 C 9.72 g/m*3 17.3 C 0 km/h
304 03-06-2004 13:01:01 18.5 C 9.65 g/m*3 18.5 C 0 km/h
305 03-06-2004 13:13:01 18.5 C 9.18 g/m*3 18.5 C 0 km/h
306 03-06-2004 13:25:01 17.9 C 9.31 g/m*3 17.9 C 0 km/h
307 03-06-2004 13:37:01 18.7 C 9.45 g/m*3 18.7 C 0 km/h
308 03-06-2004 13:49:01 19 C 9.45 g/m*3 19 C 0 km/h
309 03-06-2004 14:01:02 18.8 C 9.66 g/m*3 18.8 C 0 km/h
310 03-06-2004 14:13:02 18.3 C 9.38 g/m*3 18.3 C 0 km/h
311 03-06-2004 14:25:01 18.1 C 9.27 g/m*3 18.1 C 0 km/h
312 03-06-2004 14:37:02 18.7 C 9.29 g/m*3 18.7 C 0 km/h
313 03-06-2004 14:49:02 20.8 C 9.78 g/m*3 20.8 C 0 km/h
314 03-06-2004 15:01:02 20.3 C 9.32 g/m*3 20.3 C 0 km/h
315 03-06-2004 15:13:02 20.6 C 9.31 g/m*3 20.6 C 0 km/h
316 03-06-2004 15:25:02 20.6 C 9.31 g/m*3 20.6 C 0 km/h
317 03-06-2004 15:37:02 20.4 C 9.38 g/m*3 20.4 C 0 km/h
318 03-06-2004 15:49:02 20.5 C 9.43 g/m*3 20.5 C 0 km/h
319 03-06-2004 16:01:02 21 C 9.34 g/m*3 21 C 0 km/h
320 03-06-2004 16:13:02 21.5 C 9.24 g/m*3 21.5 C 0 km/h
321 03-06-2004 16:25:02 22.2 C 9.42 g/m*3 22.2 C 0 km/h
322 03-06-2004 16:37:02 21.8 C 9.4 g/m*3 21.8 C 0 km/h
323 03-06-2004 16:49:01 21.9 C 9.46 g/m*3 21.9 C 0 km/h
324 03-06-2004 17:01:03 22.5 C 9.59 g/m*3 22.5 C 0 km/h
325 03-06-2004 17:13:03 21.6 C 9.48 g/m*3 21.6 C 0 km/h
Sensor: Nr:Datum:Temp:Abs-Feuchte:Windchill:Wind:
Aussen-T/F 326 03-06-2004 17:25:00 21.4 C 9.56 g/m*3 21.4 C 0 km/h
327 03-06-2004 17:37:00 22.4 C 10.13 g/m*3 22.4 C 0 km/h
328 03-06-2004 17:49:01 22.5 C 9.59 g/m*3 22.5 C 0 km/h
329 03-06-2004 18:01:01 21.9 C 9.26 g/m*3 21.9 C 0 km/h
330 03-06-2004 18:13:01 21.7 C 8.97 g/m*3 21.7 C 0 km/h
331 03-06-2004 18:25:01 21.2 C 9.27 g/m*3 21.2 C 0 km/h
332 03-06-2004 18:37:01 20.8 C 9.6 g/m*3 20.8 C 0 km/h
333 03-06-2004 18:49:01 21.8 C 9.21 g/m*3 21.8 C 0 km/h
334 03-06-2004 19:01:01 21.2 C 9.08 g/m*3 21.2 C 0 km/h
335 03-06-2004 19:13:01 20.8 C 9.6 g/m*3 20.8 C 0 km/h
336 03-06-2004 19:25:01 20.7 C 9.36 g/m*3 20.7 C 0 km/h
337 03-06-2004 19:37:01 20 C 9.16 g/m*3 20 C 0 km/h
338 03-06-2004 19:49:01 20.3 C 9.67 g/m*3 20.3 C 0 km/h
339 03-06-2004 20:01:01 20.9 C 9.83 g/m*3 20.9 C 0 km/h
340 03-06-2004 20:13:01 21.2 C 9.82 g/m*3 21.2 C 0 km/h
341 03-06-2004 20:25:01 20.8 C 9.78 g/m*3 20.8 C 0 km/h
342 03-06-2004 20:37:01 20.4 C 9.73 g/m*3 20.4 C 0 km/h
343 03-06-2004 20:49:01 19.7 C 9.51 g/m*3 19.7 C 0 km/h
344 03-06-2004 21:01:01 19.3 C 10.12 g/m*3 19.3 C 0 km/h
345 03-06-2004 21:13:01 18.7 C 10.25 g/m*3 18.7 C 0 km/h
346 03-06-2004 21:25:00 17.8 C 10.17 g/m*3 17.8 C 0 km/h
347 03-06-2004 21:37:00 17 C 9.98 g/m*3 17 C 0 km/h
348 03-06-2004 21:49:01 16.6 C 9.89 g/m*3 16.6 C 0 km/h
349 03-06-2004 22:01:01 16 C 9.81 g/m*3 16 C 0 km/h
350 03-06-2004 22:13:01 15.8 C 10.1 g/m*3 15.8 C 0 km/h
Sensor: Nr:Datum:Temp:Abs-Feuchte:Windchill:Wind:
Aussen-T/F 351 03-06-2004 22:25:01 15.4 C 9.99 g/m*3 15.4 C 0 km/h
352 03-06-2004 22:37:01 15.5 C 10.18 g/m*3 15.5 C 0 km/h
353 03-06-2004 22:49:01 15.4 C 10.12 g/m*3 15.4 C 0 km/h
354 03-06-2004 23:01:01 15 C 10 g/m*3 15 C 0 km/h
355 03-06-2004 23:13:01 14.9 C 10.2 g/m*3 14.9 C 0 km/h
356 03-06-2004 23:25:01 14.9 C 10.2 g/m*3 14.9 C 0 km/h
357 03-06-2004 23:37:01 14.9 C 10.32 g/m*3 14.9 C 0 km/h
358 03-06-2004 23:49:01 14.7 C 10.2 g/m*3 14.7 C 0 km/h
359 04-06-2004 00:01:01 14.4 C 10.14 g/m*3 14.4 C 0 km/h
360 04-06-2004 00:13:01 14.5 C 10.32 g/m*3 14.5 C 0 km/h
361 04-06-2004 00:25:01 14.4 C 10.38 g/m*3 14.4 C 0 km/h
362 04-06-2004 00:37:01 14.1 C 10.19 g/m*3 14.1 C 0 km/h
363 04-06-2004 00:49:01 14 C 10.13 g/m*3 14 C 0 km/h
364 04-06-2004 01:01:01 13.8 C 10.37 g/m*3 13.8 C 0 km/h
365 04-06-2004 01:13:01 13.4 C 10 g/m*3 13.4 C 0 km/h
366 04-06-2004 01:25:01 13.3 C 9.94 g/m*3 13.3 C 0 km/h
367 04-06-2004 01:37:01 13.2 C 9.99 g/m*3 13.2 C 0 km/h
368 04-06-2004 01:49:01 13.1 C 10.04 g/m*3 13.1 C 0 km/h
369 04-06-2004 02:01:01 13 C 9.98 g/m*3 13 C 0 km/h
370 04-06-2004 02:13:01 13 C 9.98 g/m*3 13 C 0 km/h
371 04-06-2004 02:25:01 12.8 C 9.86 g/m*3 12.8 C 0 km/h
372 04-06-2004 02:37:01 12.8 C 9.97 g/m*3 12.8 C 0 km/h
373 04-06-2004 02:50:03 12.8 C 9.97 g/m*3 12.8 C 0 km/h
374 04-06-2004 03:02:03 12.6 C 9.74 g/m*3 12.6 C 0 km/h
375 04-06-2004 03:14:03 12.5 C 9.68 g/m*3 12.5 C 0 km/h
Sensor: Nr:Datum:Temp:Abs-Feuchte:Windchill:Wind:
Aussen-T/F 376 04-06-2004 03:26:03 12.3 C 9.66 g/m*3 12.3 C 0 km/h
377 04-06-2004 03:38:01 12.1 C 9.54 g/m*3 12.1 C 0 km/h
378 04-06-2004 03:50:01 12 C 9.48 g/m*3 12 C 0 km/h
379 04-06-2004 04:02:01 11.8 C 9.37 g/m*3 11.8 C 0 km/h
380 04-06-2004 04:14:01 11.8 C 9.47 g/m*3 11.8 C 0 km/h
381 04-06-2004 04:26:01 11.7 C 9.41 g/m*3 11.7 C 0 km/h
382 04-06-2004 04:38:01 11.6 C 9.46 g/m*3 11.6 C 0 km/h
383 04-06-2004 04:50:01 11.5 C 9.5 g/m*3 11.5 C 0 km/h
384 04-06-2004 05:02:01 11.4 C 9.44 g/m*3 11.4 C 0 km/h
385 04-06-2004 05:14:01 11.3 C 9.38 g/m*3 11.3 C 0 km/h
386 04-06-2004 05:26:00 11.4 C 9.44 g/m*3 11.4 C 0 km/h
387 04-06-2004 05:38:00 11.4 C 9.44 g/m*3 11.4 C 0 km/h
388 04-06-2004 05:50:01 11.5 C 9.5 g/m*3 11.5 C 0 km/h
389 04-06-2004 06:02:01 11.5 C 9.5 g/m*3 11.5 C 0 km/h
390 04-06-2004 06:14:01 11.5 C 9.4 g/m*3 11.5 C 0 km/h
391 04-06-2004 06:26:00 11.7 C 9.52 g/m*3 11.7 C 0 km/h
392 04-06-2004 06:38:00 11.8 C 9.47 g/m*3 11.8 C 0 km/h
393 04-06-2004 06:50:01 11.9 C 9.53 g/m*3 11.9 C 0 km/h
394 04-06-2004 07:02:01 11.9 C 9.43 g/m*3 11.9 C 0 km/h
395 04-06-2004 07:14:01 12.1 C 9.44 g/m*3 12.1 C 0 km/h
396 04-06-2004 07:26:00 12.3 C 9.56 g/m*3 12.3 C 0 km/h
397 04-06-2004 07:38:00 12.4 C 9.51 g/m*3 12.4 C 0 km/h
398 04-06-2004 07:50:01 12.8 C 9.63 g/m*3 12.8 C 0 km/h
399 04-06-2004 08:02:01 12.9 C 9.58 g/m*3 12.9 C 0 km/h
400 04-06-2004 08:14:01 13.1 C 9.59 g/m*3 13.1 C 0 km/h
Sensor: Nr:Datum:Temp:Abs-Feuchte:Windchill:Wind:
Aussen-T/F 401 04-06-2004 08:26:00 13.1 C 9.59 g/m*3 13.1 C 0 km/h
402 04-06-2004 08:38:00 13.3 C 9.7 g/m*3 13.3 C 0 km/h
403 04-06-2004 08:50:01 13.4 C 9.76 g/m*3 13.4 C 0 km/h
404 04-06-2004 09:02:01 13.3 C 9.82 g/m*3 13.3 C 0 km/h
405 04-06-2004 09:14:01 13.2 C 9.99 g/m*3 13.2 C 0 km/h
406 04-06-2004 09:26:01 13.3 C 10.17 g/m*3 13.3 C 0 km/h
407 04-06-2004 09:38:00 13.2 C 10.1 g/m*3 13.2 C 0 km/h
408 04-06-2004 09:50:01 13.2 C 10.22 g/m*3 13.2 C 0 km/h
409 04-06-2004 10:02:01 13.2 C 10.33 g/m*3 13.2 C 0 km/h
410 04-06-2004 10:14:01 13.2 C 10.33 g/m*3 13.2 C 0 km/h
411 04-06-2004 10:26:01 13.6 C 10.59 g/m*3 13.6 C 0 km/h
412 04-06-2004 10:38:00 13.6 C 10.59 g/m*3 13.6 C 0 km/h
413 04-06-2004 10:50:01 13.8 C 10.6 g/m*3 13.8 C 0 km/h
414 04-06-2004 11:02:01 14.2 C 10.75 g/m*3 14.2 C 0 km/h
415 04-06-2004 11:14:01 14.3 C 10.81 g/m*3 14.3 C 0 km/h
416 04-06-2004 11:26:01 14.5 C 10.82 g/m*3 14.5 C 0 km/h
417 04-06-2004 11:38:01 14.4 C 10.88 g/m*3 14.4 C 0 km/h
418 04-06-2004 11:50:01 14.8 C 11.15 g/m*3 14.8 C 0 km/h
419 04-06-2004 12:02:01 14.4 C 10.88 g/m*3 14.4 C 0 km/h
420 04-06-2004 12:14:01 14.4 C 11 g/m*3 14.4 C 0 km/h
421 04-06-2004 12:26:01 14.8 C 11.4 g/m*3 14.8 C 0 km/h
422 04-06-2004 12:38:01 14.8 C 11.15 g/m*3 14.8 C 0 km/h
423 04-06-2004 12:50:01 15 C 10.64 g/m*3 15 C 0 km/h
424 04-06-2004 13:02:01 15.1 C 10.32 g/m*3 15.1 C 0 km/h
425 04-06-2004 13:14:01 15.1 C 10.19 g/m*3 15.1 C 0 km/h
Sensor: Nr:Datum:Temp:Abs-Feuchte:Windchill:Wind:
Aussen-T/F 426 04-06-2004 13:26:01 15.1 C 9.68 g/m*3 15.1 C 0 km/h
427 04-06-2004 13:38:01 14.8 C 9.75 g/m*3 14.8 C 0 km/h
428 04-06-2004 13:50:01 14.6 C 10.14 g/m*3 14.6 C 0 km/h
429 04-06-2004 14:02:01 14.3 C 9.83 g/m*3 14.3 C 0 km/h
430 04-06-2004 14:14:01 14.4 C 10.01 g/m*3 14.4 C 0 km/h
431 04-06-2004 14:26:01 14.4 C 9.77 g/m*3 14.4 C 0 km/h
432 04-06-2004 14:38:01 14.2 C 9.89 g/m*3 14.2 C 0 km/h
433 04-06-2004 14:50:01 13.8 C 10.13 g/m*3 13.8 C 0 km/h
434 04-06-2004 15:02:01 14 C 10.25 g/m*3 14 C 0 km/h
435 04-06-2004 15:14:01 14.2 C 10.26 g/m*3 14.2 C 0 km/h
436 04-06-2004 15:26:01 14.4 C 10.63 g/m*3 14.4 C 0 km/h
437 04-06-2004 15:38:01 14 C 10.37 g/m*3 14 C 0 km/h
438 04-06-2004 15:50:01 14 C 10.49 g/m*3 14 C 0 km/h
439 04-06-2004 16:02:02 14.1 C 10.68 g/m*3 14.1 C 0 km/h
440 04-06-2004 16:14:02 14.1 C 10.68 g/m*3 14.1 C 0 km/h
441 04-06-2004 16:26:01 14.4 C 10.63 g/m*3 14.4 C 0 km/h
442 04-06-2004 16:38:01 14.6 C 10.64 g/m*3 14.6 C 0 km/h
443 04-06-2004 16:50:01 14.5 C 10.57 g/m*3 14.5 C 0 km/h
444 04-06-2004 17:02:01 14.6 C 10.26 g/m*3 14.6 C 0 km/h
445 04-06-2004 17:14:01 15.1 C 10.45 g/m*3 15.1 C 0 km/h
446 04-06-2004 17:26:01 15.4 C 10.51 g/m*3 15.4 C 0 km/h
447 04-06-2004 17:38:01 15.8 C 10.5 g/m*3 15.8 C 0 km/h
448 04-06-2004 17:50:01 16.1 C 10.42 g/m*3 16.1 C 0 km/h
449 04-06-2004 18:02:01 15.7 C 10.3 g/m*3 15.7 C 0 km/h
450 04-06-2004 18:14:01 15.7 C 10.7 g/m*3 15.7 C 0 km/h
Sensor: Nr:Datum:Temp:Abs-Feuchte:Windchill:Wind:
Aussen-T/F 451 04-06-2004 18:26:01 15.9 C 10.97 g/m*3 15.9 C 0 km/h
452 04-06-2004 18:38:01 16 C 10.63 g/m*3 16 C 0 km/h
453 04-06-2004 18:50:01 16 C 10.76 g/m*3 16 C 0 km/h
454 04-06-2004 19:02:01 16 C 10.9 g/m*3 16 C 0 km/h
455 04-06-2004 19:14:01 16.5 C 10.81 g/m*3 16.5 C 0 km/h
456 04-06-2004 19:26:01 16.8 C 11.01 g/m*3 16.8 C 0 km/h
457 04-06-2004 19:38:01 16.7 C 10.37 g/m*3 16.7 C 0 km/h
458 04-06-2004 19:50:01 16.8 C 10.87 g/m*3 16.8 C 0 km/h
459 04-06-2004 20:02:01 16.5 C 10.39 g/m*3 16.5 C 0 km/h
460 04-06-2004 20:14:01 15.9 C 10.29 g/m*3 15.9 C 0 km/h
461 04-06-2004 20:26:01 15.5 C 10.31 g/m*3 15.5 C 0 km/h
462 04-06-2004 20:38:01 15.5 C 10.44 g/m*3 15.5 C 0 km/h
463 04-06-2004 20:50:01 14.9 C 10.32 g/m*3 14.9 C 0 km/h
464 04-06-2004 21:02:01 14.5 C 10.32 g/m*3 14.5 C 0 km/h
465 04-06-2004 21:14:01 14.2 C 10.26 g/m*3 14.2 C 0 km/h
466 04-06-2004 21:26:02 14.1 C 10.32 g/m*3 14.1 C 0 km/h
467 04-06-2004 21:38:01 14 C 10.37 g/m*3 14 C 0 km/h
468 04-06-2004 21:50:01 14 C 10.37 g/m*3 14 C 0 km/h
469 04-06-2004 22:02:01 14 C 10.37 g/m*3 14 C 0 km/h
470 04-06-2004 22:14:01 14 C 10.37 g/m*3 14 C 0 km/h
471 04-06-2004 22:26:01 14 C 10.37 g/m*3 14 C 0 km/h
472 04-06-2004 22:38:01 13.9 C 10.43 g/m*3 13.9 C 0 km/h
473 04-06-2004 22:50:01 14 C 10.25 g/m*3 14 C 0 km/h
474 04-06-2004 23:02:01 13.8 C 10.25 g/m*3 13.8 C 0 km/h
475 04-06-2004 23:14:01 13.6 C 10.12 g/m*3 13.6 C 0 km/h
Sensor: Nr:Datum:Temp:Abs-Feuchte:Windchill:Wind:
Aussen-T/F 476 04-06-2004 23:26:01 13.7 C 10.18 g/m*3 13.7 C 0 km/h
477 04-06-2004 23:38:01 13.7 C 10.07 g/m*3 13.7 C 0 km/h
478 04-06-2004 23:50:01 13.7 C 10.07 g/m*3 13.7 C 0 km/h
479 05-06-2004 00:02:01 13.8 C 10.13 g/m*3 13.8 C 0 km/h
480 05-06-2004 00:14:01 13.7 C 9.95 g/m*3 13.7 C 0 km/h
481 05-06-2004 00:26:01 13.8 C 10.01 g/m*3 13.8 C 0 km/h
482 05-06-2004 00:38:01 13.8 C 9.89 g/m*3 13.8 C 0 km/h
483 05-06-2004 00:50:01 13.7 C 9.83 g/m*3 13.7 C 0 km/h
484 05-06-2004 01:02:01 13.7 C 9.83 g/m*3 13.7 C 0 km/h
485 05-06-2004 01:14:01 13.7 C 9.95 g/m*3 13.7 C 0 km/h
486 05-06-2004 01:26:01 13.4 C 9.88 g/m*3 13.4 C 0 km/h
487 05-06-2004 01:38:01 13.4 C 10 g/m*3 13.4 C 0 km/h
488 05-06-2004 01:50:01 13.5 C 10.06 g/m*3 13.5 C 0 km/h
489 05-06-2004 02:02:01 13.6 C 10 g/m*3 13.6 C 0 km/h
490 05-06-2004 02:14:01 13.4 C 10.11 g/m*3 13.4 C 0 km/h
491 05-06-2004 02:26:01 13.3 C 10.05 g/m*3 13.3 C 0 km/h
492 05-06-2004 02:38:01 13.4 C 10.23 g/m*3 13.4 C 0 km/h
493 05-06-2004 02:51:03 13.2 C 10.22 g/m*3 13.2 C 0 km/h
494 05-06-2004 03:03:03 13.1 C 10.16 g/m*3 13.1 C 0 km/h
495 05-06-2004 03:15:03 13.1 C 10.27 g/m*3 13.1 C 0 km/h
496 05-06-2004 03:27:03 13 C 10.32 g/m*3 13 C 0 km/h
497 05-06-2004 03:39:02 13.1 C 10.38 g/m*3 13.1 C 0 km/h
498 05-06-2004 03:51:02 13 C 10.32 g/m*3 13 C 0 km/h
499 05-06-2004 04:03:02 13 C 10.32 g/m*3 13 C 0 km/h
500 05-06-2004 04:15:02 13.1 C 10.27 g/m*3 13.1 C 0 km/h
Sensor: Nr:Datum:Temp:Abs-Feuchte:Windchill:Wind:
Aussen-T/F 501 05-06-2004 04:27:02 13 C 10.21 g/m*3 13 C 0 km/h
502 05-06-2004 04:39:02 13 C 10.21 g/m*3 13 C 0 km/h
503 05-06-2004 04:51:01 13.1 C 10.27 g/m*3 13.1 C 0 km/h
504 05-06-2004 05:03:01 13.1 C 10.38 g/m*3 13.1 C 0 km/h
505 05-06-2004 05:15:01 13 C 10.32 g/m*3 13 C 0 km/h
506 05-06-2004 05:27:01 13 C 10.21 g/m*3 13 C 0 km/h
507 05-06-2004 05:39:01 13 C 10.21 g/m*3 13 C 0 km/h
508 05-06-2004 05:51:01 13 C 10.21 g/m*3 13 C 0 km/h
509 05-06-2004 06:03:01 13.1 C 10.27 g/m*3 13.1 C 0 km/h
510 05-06-2004 06:15:01 13.1 C 10.27 g/m*3 13.1 C 0 km/h
511 05-06-2004 06:27:01 13.1 C 10.27 g/m*3 13.1 C 0 km/h
512 05-06-2004 06:39:01 13.1 C 10.27 g/m*3 13.1 C 0 km/h
513 05-06-2004 06:51:01 13.2 C 9.87 g/m*3 13.2 C 0 km/h
514 05-06-2004 07:03:01 13.2 C 9.53 g/m*3 13.2 C 0 km/h
515 05-06-2004 07:15:01 13.1 C 9.47 g/m*3 13.1 C 0 km/h
516 05-06-2004 07:27:01 13 C 9.3 g/m*3 13 C 0 km/h
517 05-06-2004 07:39:00 13.1 C 9.24 g/m*3 13.1 C 0 km/h
518 05-06-2004 07:51:01 13.2 C 9.3 g/m*3 13.2 C 0 km/h
519 05-06-2004 08:03:01 13.4 C 9.3 g/m*3 13.4 C 0 km/h
520 05-06-2004 08:15:01 13.5 C 9.12 g/m*3 13.5 C 0 km/h
521 05-06-2004 08:27:01 13.6 C 8.94 g/m*3 13.6 C 0 km/h
522 05-06-2004 08:39:01 13.6 C 8.71 g/m*3 13.6 C 0 km/h
523 05-06-2004 08:51:01 13.5 C 8.77 g/m*3 13.5 C 0 km/h
524 05-06-2004 09:03:01 13.9 C 8.99 g/m*3 13.9 C 0 km/h
525 05-06-2004 09:15:01 13.9 C 8.75 g/m*3 13.9 C 0 km/h
Sensor: Nr:Datum:Temp:Abs-Feuchte:Windchill:Wind:
Aussen-T/F 526 05-06-2004 09:27:01 13.8 C 8.58 g/m*3 13.8 C 0 km/h
527 05-06-2004 09:39:00 14.2 C 8.67 g/m*3 14.2 C 0 km/h
528 05-06-2004 09:51:01 14.4 C 8.78 g/m*3 14.4 C 0 km/h
529 05-06-2004 10:03:01 14.7 C 8.56 g/m*3 14.7 C 0 km/h
530 05-06-2004 10:15:01 14.4 C 8.16 g/m*3 14.4 C 0 km/h
531 05-06-2004 10:27:01 14.7 C 8.18 g/m*3 14.7 C 0 km/h
532 05-06-2004 10:39:00 15.1 C 8.13 g/m*3 15.1 C 0 km/h
533 05-06-2004 10:51:01 14.9 C 7.9 g/m*3 14.9 C 0 km/h
534 05-06-2004 11:03:01 15.3 C 7.84 g/m*3 15.3 C 0 km/h
535 05-06-2004 11:15:01 14.4 C 8.03 g/m*3 14.4 C 0 km/h
536 05-06-2004 11:27:01 14.5 C 8.33 g/m*3 14.5 C 0 km/h
537 05-06-2004 11:39:01 14.8 C 8.61 g/m*3 14.8 C 0 km/h
538 05-06-2004 11:51:02 14.4 C 8.28 g/m*3 14.4 C 0 km/h
539 05-06-2004 12:03:01 14.7 C 8.31 g/m*3 14.7 C 0 km/h
540 05-06-2004 12:15:01 15.2 C 8.31 g/m*3 15.2 C 0 km/h
541 05-06-2004 12:27:01 15.5 C 7.93 g/m*3 15.5 C 0 km/h
542 05-06-2004 12:39:01 16.3 C 7.77 g/m*3 16.3 C 0 km/h
543 05-06-2004 12:51:01 15.8 C 7.81 g/m*3 15.8 C 0 km/h
544 05-06-2004 13:03:01 16.3 C 8.05 g/m*3 16.3 C 0 km/h
545 05-06-2004 13:15:01 16.4 C 7.96 g/m*3 16.4 C 0 km/h
546 05-06-2004 13:27:01 17.3 C 7.81 g/m*3 17.3 C 0 km/h
547 05-06-2004 13:39:01 17.3 C 7.96 g/m*3 17.3 C 0 km/h
548 05-06-2004 13:51:01 16.7 C 7.82 g/m*3 16.7 C 0 km/h
549 05-06-2004 14:03:01 16.5 C 8 g/m*3 16.5 C 0 km/h
550 05-06-2004 14:15:01 15.5 C 7.8 g/m*3 15.5 C 0 km/h
Sensor: Nr:Datum:Temp:Abs-Feuchte:Windchill:Wind:
Aussen-T/F 551 05-06-2004 14:27:01 15.2 C 7.92 g/m*3 15.2 C 0 km/h
552 05-06-2004 14:39:01 15.3 C 8.1 g/m*3 15.3 C 0 km/h
553 05-06-2004 14:51:01 15.9 C 8.13 g/m*3 15.9 C 0 km/h
554 05-06-2004 15:03:01 16 C 8.04 g/m*3 16 C 0 km/h
555 05-06-2004 15:15:01 16.5 C 8.14 g/m*3 16.5 C 0 km/h
556 05-06-2004 15:27:01 16.6 C 8.19 g/m*3 16.6 C 0 km/h
557 05-06-2004 15:39:01 16.1 C 8.09 g/m*3 16.1 C 0 km/h
558 05-06-2004 15:51:01 16.8 C 8.15 g/m*3 16.8 C 0 km/h
559 05-06-2004 16:03:01 16.3 C 8.32 g/m*3 16.3 C 0 km/h
560 05-06-2004 16:15:01 16 C 8.04 g/m*3 16 C 0 km/h
561 05-06-2004 16:27:01 15 C 8.85 g/m*3 15 C 0 km/h
562 05-06-2004 16:39:01 14.5 C 9.08 g/m*3 14.5 C 0 km/h
563 05-06-2004 16:51:01 15.3 C 9.01 g/m*3 15.3 C 0 km/h
564 05-06-2004 17:03:01 15.6 C 8.91 g/m*3 15.6 C 0 km/h
565 05-06-2004 17:15:01 15.4 C 8.15 g/m*3 15.4 C 0 km/h
566 05-06-2004 17:27:01 15.2 C 8.18 g/m*3 15.2 C 0 km/h
567 05-06-2004 17:39:01 15.7 C 8.56 g/m*3 15.7 C 0 km/h
568 05-06-2004 17:51:01 16 C 8.45 g/m*3 16 C 0 km/h
569 05-06-2004 18:03:01 16.1 C 8.36 g/m*3 16.1 C 0 km/h
570 05-06-2004 18:15:01 15.8 C 8.48 g/m*3 15.8 C 0 km/h
571 05-06-2004 18:27:01 15.6 C 8.51 g/m*3 15.6 C 0 km/h
572 05-06-2004 18:39:01 15.6 C 8.51 g/m*3 15.6 C 0 km/h
573 05-06-2004 18:51:01 15.3 C 8.49 g/m*3 15.3 C 0 km/h
574 05-06-2004 19:03:01 15.3 C 8.75 g/m*3 15.3 C 0 km/h
575 05-06-2004 19:15:01 15.2 C 8.7 g/m*3 15.2 C 0 km/h
Sensor: Nr:Datum:Temp:Abs-Feuchte:Windchill:Wind:
Aussen-T/F 576 05-06-2004 19:27:01 15.4 C 8.8 g/m*3 15.4 C 0 km/h
577 05-06-2004 19:39:01 15.7 C 8.96 g/m*3 15.7 C 0 km/h
578 05-06-2004 19:51:01 15.6 C 8.91 g/m*3 15.6 C 0 km/h
579 05-06-2004 20:03:01 15.2 C 8.83 g/m*3 15.2 C 0 km/h
580 05-06-2004 20:15:01 15.1 C 8.9 g/m*3 15.1 C 0 km/h
581 05-06-2004 20:27:01 15 C 8.98 g/m*3 15 C 0 km/h
582 05-06-2004 20:39:01 14.8 C 9.12 g/m*3 14.8 C 0 km/h
583 05-06-2004 20:51:01 14.7 C 9.19 g/m*3 14.7 C 0 km/h
584 05-06-2004 21:03:01 14.5 C 9.2 g/m*3 14.5 C 0 km/h
585 05-06-2004 21:15:01 14.3 C 9.21 g/m*3 14.3 C 0 km/h
586 05-06-2004 21:27:01 14.2 C 9.28 g/m*3 14.2 C 0 km/h
587 05-06-2004 21:39:01 13.9 C 9.23 g/m*3 13.9 C 0 km/h
588 05-06-2004 21:51:01 13.5 C 9.12 g/m*3 13.5 C 0 km/h
589 05-06-2004 22:03:01 13.1 C 9.01 g/m*3 13.1 C 0 km/h
590 05-06-2004 22:15:01 12.8 C 9.07 g/m*3 12.8 C 0 km/h
591 05-06-2004 22:27:01 12.8 C 9.18 g/m*3 12.8 C 0 km/h
592 05-06-2004 22:39:01 12.7 C 9.02 g/m*3 12.7 C 0 km/h
593 05-06-2004 22:51:01 12.6 C 8.96 g/m*3 12.6 C 0 km/h
594 05-06-2004 23:03:01 12.7 C 9.13 g/m*3 12.7 C 0 km/h
595 05-06-2004 23:15:01 12.8 C 9.18 g/m*3 12.8 C 0 km/h
596 05-06-2004 23:27:01 12.8 C 9.07 g/m*3 12.8 C 0 km/h
597 05-06-2004 23:39:01 12.6 C 9.07 g/m*3 12.6 C 0 km/h
598 05-06-2004 23:51:01 12.5 C 9.02 g/m*3 12.5 C 0 km/h
599 06-06-2004 00:03:01 12.2 C 9.06 g/m*3 12.2 C 0 km/h
600 06-06-2004 00:15:02 12.1 C 9.01 g/m*3 12.1 C 0 km/h
Sensor: Nr:Datum:Temp:Abs-Feuchte:Windchill:Wind:
Aussen-T/F 601 06-06-2004 00:27:02 12.2 C 9.06 g/m*3 12.2 C 0 km/h
602 06-06-2004 00:39:01 12.2 C 9.06 g/m*3 12.2 C 0 km/h
603 06-06-2004 00:51:01 12 C 8.95 g/m*3 12 C 0 km/h
604 06-06-2004 01:03:01 11.5 C 8.78 g/m*3 11.5 C 0 km/h
605 06-06-2004 01:15:01 11.3 C 8.77 g/m*3 11.3 C 0 km/h
606 06-06-2004 01:27:01 11.1 C 8.66 g/m*3 11.1 C 0 km/h
607 06-06-2004 01:39:01 10.9 C 8.65 g/m*3 10.9 C 0 km/h
608 06-06-2004 01:51:01 10.7 C 8.64 g/m*3 10.7 C 0 km/h
609 06-06-2004 02:03:01 10.4 C 8.48 g/m*3 10.4 C 0 km/h
610 06-06-2004 02:15:01 10.4 C 8.58 g/m*3 10.4 C 0 km/h
611 06-06-2004 02:27:01 10.3 C 8.62 g/m*3 10.3 C 0 km/h
612 06-06-2004 02:39:01 10.1 C 8.51 g/m*3 10.1 C 0 km/h
613 06-06-2004 02:52:03 10 C 8.46 g/m*3 10 C 0 km/h
614 06-06-2004 03:04:03 10 C 8.55 g/m*3 10 C 0 km/h
615 06-06-2004 03:16:03 9.8 C 8.54 g/m*3 9.8 C 0 km/h
616 06-06-2004 03:28:03 9.6 C 8.43 g/m*3 9.6 C 0 km/h
617 06-06-2004 03:40:01 9.5 C 8.37 g/m*3 9.5 C 0 km/h
618 06-06-2004 03:52:01 9.4 C 8.23 g/m*3 9.4 C 0 km/h
619 06-06-2004 04:04:01 9.3 C 8.18 g/m*3 9.3 C 0 km/h
620 06-06-2004 04:16:01 9.2 C 8.22 g/m*3 9.2 C 0 km/h
621 06-06-2004 04:28:01 9.1 C 8.16 g/m*3 9.1 C 0 km/h
622 06-06-2004 04:40:01 8.9 C 8.15 g/m*3 8.9 C 0 km/h
623 06-06-2004 04:52:01 8.8 C 8.09 g/m*3 8.8 C 0 km/h
624 06-06-2004 05:04:01 8.9 C 8.23 g/m*3 8.9 C 0 km/h
625 06-06-2004 05:16:01 9 C 8.29 g/m*3 9 C 0 km/h
Sensor: Nr:Datum:Temp:Abs-Feuchte:Windchill:Wind:
Aussen-T/F 626 06-06-2004 05:28:01 8.9 C 8.32 g/m*3 8.9 C 0 km/h
627 06-06-2004 05:40:01 9 C 8.29 g/m*3 9 C 0 km/h
628 06-06-2004 05:52:01 9.1 C 8.34 g/m*3 9.1 C 0 km/h
629 06-06-2004 06:04:01 9.2 C 8.39 g/m*3 9.2 C 0 km/h
630 06-06-2004 06:16:00 9.5 C 8.65 g/m*3 9.5 C 0 km/h
631 06-06-2004 06:28:00 9.6 C 8.7 g/m*3 9.6 C 0 km/h
632 06-06-2004 06:40:00 9.7 C 8.76 g/m*3 9.7 C 0 km/h
633 06-06-2004 06:52:01 9.9 C 8.78 g/m*3 9.9 C 0 km/h
634 06-06-2004 07:04:01 10 C 8.74 g/m*3 10 C 0 km/h
635 06-06-2004 07:16:01 10.2 C 8.76 g/m*3 10.2 C 0 km/h
636 06-06-2004 07:28:01 10.5 C 8.83 g/m*3 10.5 C 0 km/h
637 06-06-2004 07:40:00 10.8 C 8.9 g/m*3 10.8 C 0 km/h
638 06-06-2004 07:52:01 10.7 C 8.84 g/m*3 10.7 C 0 km/h
639 06-06-2004 08:04:01 11.1 C 8.96 g/m*3 11.1 C 0 km/h
640 06-06-2004 08:16:01 11.2 C 8.92 g/m*3 11.2 C 0 km/h
641 06-06-2004 08:28:01 11.7 C 9.1 g/m*3 11.7 C 0 km/h
642 06-06-2004 08:40:00 12 C 9.06 g/m*3 12 C 0 km/h
643 06-06-2004 08:52:01 12 C 8.85 g/m*3 12 C 0 km/h
644 06-06-2004 09:04:01 12.1 C 8.79 g/m*3 12.1 C 0 km/h
645 06-06-2004 09:16:01 12.5 C 9.13 g/m*3 12.5 C 0 km/h
646 06-06-2004 09:28:01 12.9 C 9.13 g/m*3 12.9 C 0 km/h
647 06-06-2004 09:40:00 13.4 C 8.95 g/m*3 13.4 C 0 km/h
648 06-06-2004 09:52:01 13.9 C 8.99 g/m*3 13.9 C 0 km/h
649 06-06-2004 10:04:01 14.4 C 8.78 g/m*3 14.4 C 0 km/h
650 06-06-2004 10:16:02 15.2 C 9.09 g/m*3 15.2 C 0 km/h
Sensor: Nr:Datum:Temp:Abs-Feuchte:Windchill:Wind:
Aussen-T/F 651 06-06-2004 10:28:02 15.8 C 8.75 g/m*3 15.8 C 0 km/h
652 06-06-2004 10:40:01 16 C 8.72 g/m*3 16 C 0 km/h
653 06-06-2004 10:52:01 15.7 C 8.7 g/m*3 15.7 C 0 km/h
654 06-06-2004 11:04:02 15.8 C 9.29 g/m*3 15.8 C 0 km/h
655 06-06-2004 11:16:02 16.9 C 9.21 g/m*3 16.9 C 0 km/h
656 06-06-2004 11:28:03 17.4 C 9.19 g/m*3 17.4 C 0 km/h
657 06-06-2004 11:40:02 18.1 C 9.12 g/m*3 18.1 C 0 km/h
658 06-06-2004 11:52:01 19.2 C 9.4 g/m*3 19.2 C 0 km/h
659 06-06-2004 12:04:03 19.4 C 9.51 g/m*3 19.4 C 0 km/h
660 06-06-2004 12:16:01 19.7 C 9 g/m*3 19.7 C 0 km/h
661 06-06-2004 12:28:01 20.8 C 9.23 g/m*3 20.8 C 0 km/h
662 06-06-2004 12:40:02 20.1 C 8.34 g/m*3 20.1 C 0 km/h
663 06-06-2004 12:52:02 20 C 8.12 g/m*3 20 C 0 km/h
664 06-06-2004 13:04:03 20.5 C 7.65 g/m*3 20.5 C 0 km/h
665 06-06-2004 13:16:01 20.9 C 7.29 g/m*3 20.9 C 0 km/h
666 06-06-2004 13:28:01 22.2 C 7.07 g/m*3 22.2 C 0 km/h
667 06-06-2004 13:40:01 21.9 C 7.91 g/m*3 21.9 C 0 km/h
668 06-06-2004 13:52:01 21.6 C 7.02 g/m*3 21.6 C 0 km/h
669 06-06-2004 14:04:01 22.6 C 7.43 g/m*3 22.6 C 0 km/h
670 06-06-2004 14:16:01 22.7 C 7.68 g/m*3 22.7 C 0 km/h
671 06-06-2004 14:28:01 22.1 C 7.42 g/m*3 22.1 C 0 km/h
672 06-06-2004 14:40:01 22.1 C 7.81 g/m*3 22.1 C 0 km/h
673 06-06-2004 14:52:01 22.8 C 7.72 g/m*3 22.8 C 0 km/h
674 06-06-2004 15:04:01 23 C 7.6 g/m*3 23 C 0 km/h
675 06-06-2004 15:16:01 22.9 C 8.17 g/m*3 22.9 C 0 km/h
Sensor: Nr:Datum:Temp:Abs-Feuchte:Windchill:Wind:
Aussen-T/F 676 06-06-2004 15:28:01 24.3 C 7.75 g/m*3 24.3 C 0 km/h
677 06-06-2004 15:40:01 24.9 C 7.55 g/m*3 24.9 C 0 km/h
678 06-06-2004 15:52:01 25.4 C 7.53 g/m*3 25.4 C 0 km/h
679 06-06-2004 16:04:01 25.1 C 7.87 g/m*3 25.1 C 0 km/h
680 06-06-2004 16:16:01 26.8 C 7.89 g/m*3 26.8 C 0 km/h
681 06-06-2004 16:28:01 26.4 C 7.72 g/m*3 26.4 C 0 km/h
682 06-06-2004 16:40:01 25.6 C 8.57 g/m*3 25.6 C 0 km/h
683 06-06-2004 16:52:01 26.7 C 7.59 g/m*3 26.7 C 0 km/h
684 06-06-2004 17:04:01 26.1 C 7.59 g/m*3 26.1 C 0 km/h
685 06-06-2004 17:16:01 24.6 C 6.98 g/m*3 24.6 C 0 km/h
686 06-06-2004 17:28:01 25.7 C 7.18 g/m*3 25.7 C 0 km/h
687 06-06-2004 17:40:01 24.8 C 7.28 g/m*3 24.8 C 0 km/h
688 06-06-2004 17:52:01 24.4 C 7.79 g/m*3 24.4 C 0 km/h
689 06-06-2004 18:04:01 24.4 C 7.34 g/m*3 24.4 C 0 km/h
690 06-06-2004 18:16:01 24 C 7.4 g/m*3 24 C 0 km/h
691 06-06-2004 18:28:01 24.8 C 7.51 g/m*3 24.8 C 0 km/h
692 06-06-2004 18:40:01 25 C 7.37 g/m*3 25 C 0 km/h
693 06-06-2004 18:52:01 25.2 C 7.68 g/m*3 25.2 C 0 km/h
694 06-06-2004 19:04:01 25 C 7.14 g/m*3 25 C 0 km/h
695 06-06-2004 19:16:01 24.9 C 7.32 g/m*3 24.9 C 0 km/h
696 06-06-2004 19:28:01 24.5 C 7.39 g/m*3 24.5 C 0 km/h
697 06-06-2004 19:40:01 25.1 C 7.64 g/m*3 25.1 C 0 km/h
698 06-06-2004 19:52:01 24.5 C 7.61 g/m*3 24.5 C 0 km/h
699 06-06-2004 20:04:01 24.5 C 9.4 g/m*3 24.5 C 0 km/h
700 06-06-2004 20:16:01 24.4 C 9.35 g/m*3 24.4 C 0 km/h
Sensor: Nr:Datum:Temp:Abs-Feuchte:Windchill:Wind:
Aussen-T/F 701 06-06-2004 20:28:01 24.3 C 9.07 g/m*3 24.3 C 0 km/h
702 06-06-2004 20:40:01 23.4 C 9.46 g/m*3 23.4 C 0 km/h
703 06-06-2004 20:52:01 22.4 C 9.33 g/m*3 22.4 C 0 km/h
704 06-06-2004 21:04:01 21 C 9.53 g/m*3 21 C 0 km/h
705 06-06-2004 21:16:01 20.2 C 9.27 g/m*3 20.2 C 0 km/h
706 06-06-2004 21:28:01 19.3 C 9.29 g/m*3 19.3 C 0 km/h
707 06-06-2004 21:40:01 18.8 C 9.18 g/m*3 18.8 C 0 km/h
708 06-06-2004 21:52:01 18.5 C 9.33 g/m*3 18.5 C 0 km/h
709 06-06-2004 22:04:01 18.3 C 8.76 g/m*3 18.3 C 0 km/h
710 06-06-2004 22:16:01 17.9 C 9.01 g/m*3 17.9 C 0 km/h
711 06-06-2004 22:28:01 17.5 C 8.95 g/m*3 17.5 C 0 km/h
712 06-06-2004 22:40:01 17.3 C 8.99 g/m*3 17.3 C 0 km/h
713 06-06-2004 22:52:01 17 C 8.83 g/m*3 17 C 0 km/h
714 06-06-2004 23:04:01 16.6 C 9.04 g/m*3 16.6 C 0 km/h
715 06-06-2004 23:16:01 16.3 C 9.02 g/m*3 16.3 C 0 km/h
716 06-06-2004 23:28:01 15.9 C 9.07 g/m*3 15.9 C 0 km/h
717 06-06-2004 23:40:01 15.8 C 9.02 g/m*3 15.8 C 0 km/h
718 06-06-2004 23:52:01 15.4 C 8.93 g/m*3 15.4 C 0 km/h
719 07-06-2004 00:04:01 15.2 C 9.09 g/m*3 15.2 C 0 km/h
720 07-06-2004 00:16:01 15 C 9.1 g/m*3 15 C 0 km/h
721 07-06-2004 00:28:01 14.8 C 9.25 g/m*3 14.8 C 0 km/h
722 07-06-2004 00:40:01 14.7 C 9.19 g/m*3 14.7 C 0 km/h
723 07-06-2004 00:52:01 14.4 C 9.15 g/m*3 14.4 C 0 km/h
724 07-06-2004 01:04:01 14.2 C 9.16 g/m*3 14.2 C 0 km/h
725 07-06-2004 01:16:01 14 C 9.17 g/m*3 14 C 0 km/h
Sensor: Nr:Datum:Temp:Abs-Feuchte:Windchill:Wind:
Aussen-T/F 726 07-06-2004 01:28:01 14 C 9.17 g/m*3 14 C 0 km/h
727 07-06-2004 01:40:01 13.7 C 9.12 g/m*3 13.7 C 0 km/h
728 07-06-2004 01:52:01 13.3 C 9.01 g/m*3 13.3 C 0 km/h
729 07-06-2004 02:04:01 13.1 C 9.01 g/m*3 13.1 C 0 km/h
730 07-06-2004 02:16:01 13.1 C 9.01 g/m*3 13.1 C 0 km/h
731 07-06-2004 02:28:01 12.9 C 9.13 g/m*3 12.9 C 0 km/h
732 07-06-2004 02:40:01 12.9 C 9.13 g/m*3 12.9 C 0 km/h
733 07-06-2004 02:53:02 12.8 C 9.07 g/m*3 12.8 C 0 km/h
734 07-06-2004 03:05:02 12.5 C 8.91 g/m*3 12.5 C 0 km/h
735 07-06-2004 03:17:02 12.5 C 9.02 g/m*3 12.5 C 0 km/h
736 07-06-2004 03:29:02 12.3 C 8.9 g/m*3 12.3 C 0 km/h
737 07-06-2004 03:41:01 12.1 C 8.9 g/m*3 12.1 C 0 km/h
738 07-06-2004 03:53:01 12 C 8.85 g/m*3 12 C 0 km/h
739 07-06-2004 04:05:01 11.9 C 8.9 g/m*3 11.9 C 0 km/h
740 07-06-2004 04:17:01 11.8 C 8.84 g/m*3 11.8 C 0 km/h
741 07-06-2004 04:29:01 11.8 C 8.84 g/m*3 11.8 C 0 km/h
742 07-06-2004 04:41:01 11.7 C 8.79 g/m*3 11.7 C 0 km/h
743 07-06-2004 04:53:01 11.5 C 8.68 g/m*3 11.5 C 0 km/h
744 07-06-2004 05:05:01 11.4 C 8.72 g/m*3 11.4 C 0 km/h
745 07-06-2004 05:17:01 11.3 C 8.57 g/m*3 11.3 C 0 km/h
746 07-06-2004 05:29:01 11.2 C 8.51 g/m*3 11.2 C 0 km/h
747 07-06-2004 05:41:01 11.1 C 8.46 g/m*3 11.1 C 0 km/h
748 07-06-2004 05:53:01 11.1 C 8.46 g/m*3 11.1 C 0 km/h
749 07-06-2004 06:05:01 11 C 8.51 g/m*3 11 C 0 km/h
750 07-06-2004 06:17:01 11.1 C 8.56 g/m*3 11.1 C 0 km/h
Sensor: Nr:Datum:Temp:Abs-Feuchte:Windchill:Wind:
Aussen-T/F 751 07-06-2004 06:29:01 10.9 C 8.65 g/m*3 10.9 C 0 km/h
752 07-06-2004 06:41:01 11 C 8.71 g/m*3 11 C 0 km/h
753 07-06-2004 06:53:01 11.2 C 8.82 g/m*3 11.2 C 0 km/h
754 07-06-2004 07:05:01 11.4 C 8.83 g/m*3 11.4 C 0 km/h
755 07-06-2004 07:17:01 11.3 C 8.77 g/m*3 11.3 C 0 km/h
756 07-06-2004 07:29:01 11.5 C 8.88 g/m*3 11.5 C 0 km/h
757 07-06-2004 07:41:01 11.7 C 8.89 g/m*3 11.7 C 0 km/h
758 07-06-2004 07:53:01 11.8 C 8.95 g/m*3 11.8 C 0 km/h
759 07-06-2004 08:05:01 12.2 C 8.96 g/m*3 12.2 C 0 km/h
760 07-06-2004 08:17:01 12.5 C 8.91 g/m*3 12.5 C 0 km/h
761 07-06-2004 08:29:01 12.9 C 9.02 g/m*3 12.9 C 0 km/h
762 07-06-2004 08:41:01 13.3 C 9.01 g/m*3 13.3 C 0 km/h
763 07-06-2004 08:53:01 13.7 C 9.12 g/m*3 13.7 C 0 km/h
764 07-06-2004 09:05:01 14.2 C 9.16 g/m*3 14.2 C 0 km/h
765 07-06-2004 09:17:01 14.9 C 9.56 g/m*3 14.9 C 0 km/h
766 07-06-2004 09:29:01 15.6 C 9.44 g/m*3 15.6 C 0 km/h
767 07-06-2004 09:41:01 16.6 C 10.03 g/m*3 16.6 C 0 km/h
768 07-06-2004 09:53:01 17.4 C 10.23 g/m*3 17.4 C 0 km/h
769 07-06-2004 10:05:01 18.3 C 9.85 g/m*3 18.3 C 0 km/h
770 07-06-2004 10:17:01 19.1 C 10 g/m*3 19.1 C 0 km/h
771 07-06-2004 10:29:01 19.7 C 10.19 g/m*3 19.7 C 0 km/h
772 07-06-2004 10:41:01 20.7 C 10.62 g/m*3 20.7 C 0 km/h
773 07-06-2004 10:53:01 21.5 C 9.81 g/m*3 21.5 C 0 km/h
774 07-06-2004 11:05:01 22 C 9.51 g/m*3 22 C 0 km/h
775 07-06-2004 11:17:01 23.1 C 9.92 g/m*3 23.1 C 0 km/h
Sensor: Nr:Datum:Temp:Abs-Feuchte:Windchill:Wind:
Aussen-T/F 776 07-06-2004 11:29:01 23.7 C 9.63 g/m*3 23.7 C 0 km/h
777 07-06-2004 11:41:01 24.1 C 8.75 g/m*3 24.1 C 0 km/h
778 07-06-2004 11:53:01 24.8 C 8.42 g/m*3 24.8 C 0 km/h
779 07-06-2004 12:05:01 24.8 C 8.19 g/m*3 24.8 C 0 km/h
780 07-06-2004 12:17:01 25.6 C 7.62 g/m*3 25.6 C 0 km/h
781 07-06-2004 12:29:01 25.6 C 7.38 g/m*3 25.6 C 0 km/h
782 07-06-2004 12:41:02 26.7 C 7.85 g/m*3 26.7 C 0 km/h
783 07-06-2004 12:53:01 27.4 C 7.37 g/m*3 27.4 C 0 km/h
784 07-06-2004 13:05:02 26.4 C 6.97 g/m*3 26.4 C 0 km/h
785 07-06-2004 13:17:01 27.7 C 7.49 g/m*3 27.7 C 0 km/h
786 07-06-2004 13:29:01 29 C 7.18 g/m*3 29 C 0 km/h
787 07-06-2004 13:41:02 27.8 C 7.26 g/m*3 27.8 C 0 km/h
788 07-06-2004 13:53:02 28.7 C 7.06 g/m*3 28.7 C 0 km/h
789 07-06-2004 14:05:02 27.4 C 6.84 g/m*3 27.4 C 0 km/h
790 07-06-2004 14:17:02 27.3 C 7.85 g/m*3 27.3 C 0 km/h
791 07-06-2004 14:29:02 28 C 7.89 g/m*3 28 C 0 km/h
792 07-06-2004 14:41:02 28.4 C 7.78 g/m*3 28.4 C 0 km/h
793 07-06-2004 14:53:02 27.9 C 8.11 g/m*3 27.9 C 0 km/h
794 07-06-2004 15:05:02 28.8 C 7.67 g/m*3 28.8 C 0 km/h
795 07-06-2004 15:17:02 28.4 C 7.78 g/m*3 28.4 C 0 km/h
796 07-06-2004 15:29:02 29.3 C 7.59 g/m*3 29.3 C 0 km/h
797 07-06-2004 15:41:02 28.7 C 7.63 g/m*3 28.7 C 0 km/h
798 07-06-2004 15:53:01 29.2 C 7.55 g/m*3 29.2 C 0 km/h
799 07-06-2004 16:05:01 29.5 C 7.38 g/m*3 29.5 C 0 km/h
800 07-06-2004 16:17:01 29.5 C 7.67 g/m*3 29.5 C 0 km/h
Sensor: Nr:Datum:Temp:Abs-Feuchte:Windchill:Wind:
Aussen-T/F 801 07-06-2004 16:29:01 30 C 7.88 g/m*3 30 C 0 km/h
802 07-06-2004 16:41:01 30.3 C 8.01 g/m*3 30.3 C 0 km/h
803 07-06-2004 16:53:01 30.3 C 7.4 g/m*3 30.3 C 0 km/h
804 07-06-2004 17:05:01 30.4 C 7.44 g/m*3 30.4 C 0 km/h
805 07-06-2004 17:17:01 30.4 C 7.13 g/m*3 30.4 C 0 km/h
806 07-06-2004 17:29:01 30.6 C 6.89 g/m*3 30.6 C 0 km/h
807 07-06-2004 17:41:01 30.1 C 7.01 g/m*3 30.1 C 0 km/h
808 07-06-2004 17:53:01 30.1 C 7.32 g/m*3 30.1 C 0 km/h
809 07-06-2004 18:05:01 30.2 C 7.36 g/m*3 30.2 C 0 km/h
810 07-06-2004 18:17:01 30.6 C 7.2 g/m*3 30.6 C 0 km/h
811 07-06-2004 18:29:01 30.9 C 7 g/m*3 30.9 C 0 km/h
812 07-06-2004 18:41:01 30.6 C 7.2 g/m*3 30.6 C 0 km/h
813 07-06-2004 18:53:01 30.6 C 7.2 g/m*3 30.6 C 0 km/h
814 07-06-2004 19:05:01 30.3 C 7.7 g/m*3 30.3 C 0 km/h
815 07-06-2004 19:17:01 30.3 C 8.01 g/m*3 30.3 C 0 km/h
816 07-06-2004 19:29:01 29.9 C 9.05 g/m*3 29.9 C 0 km/h
817 07-06-2004 19:41:01 30.4 C 9.61 g/m*3 30.4 C 0 km/h
818 07-06-2004 19:53:01 30.3 C 9.55 g/m*3 30.3 C 0 km/h
819 07-06-2004 20:05:01 29.8 C 10.5 g/m*3 29.8 C 0 km/h
820 07-06-2004 20:17:01 28.6 C 10.12 g/m*3 28.6 C 0 km/h
821 07-06-2004 20:29:01 28.1 C 9.57 g/m*3 28.1 C 0 km/h
822 07-06-2004 20:41:01 27.4 C 9.47 g/m*3 27.4 C 0 km/h
823 07-06-2004 20:53:01 26.6 C 9.57 g/m*3 26.6 C 0 km/h
824 07-06-2004 21:05:01 25.1 C 9.49 g/m*3 25.1 C 0 km/h
825 07-06-2004 21:17:01 24.1 C 9.41 g/m*3 24.1 C 0 km/h
Sensor: Nr:Datum:Temp:Abs-Feuchte:Windchill:Wind:
Aussen-T/F 826 07-06-2004 21:29:01 23.6 C 10 g/m*3 23.6 C 0 km/h
827 07-06-2004 21:41:01 23 C 10.28 g/m*3 23 C 0 km/h
828 07-06-2004 21:53:01 22.8 C 10.57 g/m*3 22.8 C 0 km/h
829 07-06-2004 22:05:01 22.4 C 10.53 g/m*3 22.4 C 0 km/h
830 07-06-2004 22:17:01 22.2 C 10.41 g/m*3 22.2 C 0 km/h
831 07-06-2004 22:29:01 21.9 C 10.23 g/m*3 21.9 C 0 km/h
832 07-06-2004 22:41:01 21.1 C 9.77 g/m*3 21.1 C 0 km/h
833 07-06-2004 22:53:01 21.1 C 10.32 g/m*3 21.1 C 0 km/h
834 07-06-2004 23:05:01 20.6 C 10.56 g/m*3 20.6 C 0 km/h
835 07-06-2004 23:17:01 20.1 C 10.26 g/m*3 20.1 C 0 km/h
836 07-06-2004 23:29:01 19.8 C 10.59 g/m*3 19.8 C 0 km/h
837 07-06-2004 23:41:01 19.5 C 10.41 g/m*3 19.5 C 0 km/h
838 07-06-2004 23:53:01 19.5 C 10.57 g/m*3 19.5 C 0 km/h

Legende:
   Min
   Max


Maximal/Minimal-Werte vom 01.06.2004 - 07.06.2004

Sensor Min Max Avg
Temp
(Aussen-T/F)
8.8 °C
06-06-2004  04:52:01
30.9 °C
07-06-2004  18:29:01
16.19 °C
Abs-Feuchte
(Aussen-T/F)
6.59 g/m*3
01-06-2004  15:59:01
13.72 g/m*3
02-06-2004  16:00:02
9.25 g/m*3
Windchill
(Aussen-T/F)
8.8 C
06-06-2004  04:52:01
30.9 C
07-06-2004  18:29:01
16.17 C

Die Daten stammen von einer Davis Vantage Pro 2 Wetter-Station und werden unter Linux mit der Software wview2wettercgi und aufbereitet. Alle Angaben erfolgen ohne Gewähr für ihre Vollständigkeit oder Richtigkeit.
Kontakt: Rainer Krienke krienke@uni-koblenz.de . Meine Webseiten an der Uni Koblenz oder privat.
Version: $Revision: 0.78 $